sensor_id;sensor_type;location;lat;lon;timestamp;P1;durP1;ratioP1;P2;durP2;ratioP2
13685;SDS011;6915;48.296;8.874;2024-03-29T00:00:36;0.80;;;0.50;;
13685;SDS011;6915;48.296;8.874;2024-03-29T00:03:02;0.50;;;0.50;;
13685;SDS011;6915;48.296;8.874;2024-03-29T00:05:28;1.33;;;0.80;;
13685;SDS011;6915;48.296;8.874;2024-03-29T00:07:54;1.13;;;0.40;;
13685;SDS011;6915;48.296;8.874;2024-03-29T00:10:20;0.67;;;0.50;;
13685;SDS011;6915;48.296;8.874;2024-03-29T00:12:47;0.43;;;0.30;;
13685;SDS011;6915;48.296;8.874;2024-03-29T00:15:14;0.83;;;0.47;;
13685;SDS011;6915;48.296;8.874;2024-03-29T00:17:40;2.20;;;0.40;;
13685;SDS011;6915;48.296;8.874;2024-03-29T00:20:06;0.93;;;0.50;;
13685;SDS011;6915;48.296;8.874;2024-03-29T00:22:32;0.60;;;0.50;;
13685;SDS011;6915;48.296;8.874;2024-03-29T00:24:58;0.70;;;0.60;;
13685;SDS011;6915;48.296;8.874;2024-03-29T00:27:24;2.03;;;0.53;;
13685;SDS011;6915;48.296;8.874;2024-03-29T00:29:52;0.50;;;0.40;;
13685;SDS011;6915;48.296;8.874;2024-03-29T00:32:18;0.50;;;0.40;;
13685;SDS011;6915;48.296;8.874;2024-03-29T00:34:44;1.40;;;0.40;;
13685;SDS011;6915;48.296;8.874;2024-03-29T00:37:10;0.40;;;0.30;;
13685;SDS011;6915;48.296;8.874;2024-03-29T00:39:36;0.40;;;0.40;;
13685;SDS011;6915;48.296;8.874;2024-03-29T00:42:02;1.53;;;0.33;;
13685;SDS011;6915;48.296;8.874;2024-03-29T00:44:29;0.53;;;0.40;;
13685;SDS011;6915;48.296;8.874;2024-03-29T00:46:56;0.30;;;0.30;;
13685;SDS011;6915;48.296;8.874;2024-03-29T00:49:22;0.27;;;0.27;;
13685;SDS011;6915;48.296;8.874;2024-03-29T00:51:48;0.60;;;0.40;;
13685;SDS011;6915;48.296;8.874;2024-03-29T00:54:14;1.57;;;0.50;;
13685;SDS011;6915;48.296;8.874;2024-03-29T00:56:40;0.80;;;0.50;;
13685;SDS011;6915;48.296;8.874;2024-03-29T00:59:06;0.47;;;0.43;;
13685;SDS011;6915;48.296;8.874;2024-03-29T01:01:32;1.73;;;0.50;;
13685;SDS011;6915;48.296;8.874;2024-03-29T01:03:59;0.40;;;0.40;;
13685;SDS011;6915;48.296;8.874;2024-03-29T01:06:25;0.93;;;0.40;;
13685;SDS011;6915;48.296;8.874;2024-03-29T01:08:51;0.83;;;0.50;;
13685;SDS011;6915;48.296;8.874;2024-03-29T01:11:17;1.27;;;0.50;;
13685;SDS011;6915;48.296;8.874;2024-03-29T01:13:43;0.67;;;0.50;;
13685;SDS011;6915;48.296;8.874;2024-03-29T01:16:09;1.03;;;0.50;;
13685;SDS011;6915;48.296;8.874;2024-03-29T01:18:35;1.70;;;0.50;;
13685;SDS011;6915;48.296;8.874;2024-03-29T01:21:02;1.33;;;0.50;;
13685;SDS011;6915;48.296;8.874;2024-03-29T01:23:28;0.93;;;0.50;;
13685;SDS011;6915;48.296;8.874;2024-03-29T01:25:54;1.80;;;0.60;;
13685;SDS011;6915;48.296;8.874;2024-03-29T01:28:20;0.97;;;0.60;;
13685;SDS011;6915;48.296;8.874;2024-03-29T01:30:51;1.73;;;0.40;;
13685;SDS011;6915;48.296;8.874;2024-03-29T01:33:18;0.90;;;0.50;;
13685;SDS011;6915;48.296;8.874;2024-03-29T01:35:44;0.50;;;0.50;;
13685;SDS011;6915;48.296;8.874;2024-03-29T01:38:11;1.80;;;0.50;;
13685;SDS011;6915;48.296;8.874;2024-03-29T01:40:37;0.70;;;0.53;;
13685;SDS011;6915;48.296;8.874;2024-03-29T01:43:03;3.77;;;0.50;;
13685;SDS011;6915;48.296;8.874;2024-03-29T01:45:29;0.93;;;0.37;;
13685;SDS011;6915;48.296;8.874;2024-03-29T01:47:57;0.67;;;0.40;;
13685;SDS011;6915;48.296;8.874;2024-03-29T01:50:24;0.40;;;0.40;;
13685;SDS011;6915;48.296;8.874;2024-03-29T01:52:51;0.50;;;0.50;;
13685;SDS011;6915;48.296;8.874;2024-03-29T01:55:20;0.50;;;0.40;;
13685;SDS011;6915;48.296;8.874;2024-03-29T01:57:47;0.37;;;0.30;;
13685;SDS011;6915;48.296;8.874;2024-03-29T02:00:14;0.50;;;0.40;;
13685;SDS011;6915;48.296;8.874;2024-03-29T02:02:42;0.90;;;0.50;;
13685;SDS011;6915;48.296;8.874;2024-03-29T02:05:09;0.70;;;0.53;;
13685;SDS011;6915;48.296;8.874;2024-03-29T02:07:36;0.80;;;0.50;;
13685;SDS011;6915;48.296;8.874;2024-03-29T02:10:04;0.60;;;0.60;;
13685;SDS011;6915;48.296;8.874;2024-03-29T02:12:34;0.70;;;0.40;;
13685;SDS011;6915;48.296;8.874;2024-03-29T02:15:01;0.57;;;0.40;;
13685;SDS011;6915;48.296;8.874;2024-03-29T02:17:29;1.17;;;0.33;;
13685;SDS011;6915;48.296;8.874;2024-03-29T02:19:56;0.67;;;0.37;;
13685;SDS011;6915;48.296;8.874;2024-03-29T02:22:23;0.93;;;0.40;;
13685;SDS011;6915;48.296;8.874;2024-03-29T02:24:52;0.77;;;0.50;;
13685;SDS011;6915;48.296;8.874;2024-03-29T02:27:21;0.60;;;0.40;;
13685;SDS011;6915;48.296;8.874;2024-03-29T02:29:48;0.40;;;0.40;;
13685;SDS011;6915;48.296;8.874;2024-03-29T02:32:15;0.67;;;0.47;;
13685;SDS011;6915;48.296;8.874;2024-03-29T02:34:43;2.13;;;0.50;;
13685;SDS011;6915;48.296;8.874;2024-03-29T02:37:10;0.77;;;0.33;;
13685;SDS011;6915;48.296;8.874;2024-03-29T02:39:36;1.53;;;0.50;;
13685;SDS011;6915;48.296;8.874;2024-03-29T02:42:05;1.50;;;0.40;;
13685;SDS011;6915;48.296;8.874;2024-03-29T02:44:32;0.30;;;0.30;;
13685;SDS011;6915;48.296;8.874;2024-03-29T02:46:59;0.47;;;0.30;;
13685;SDS011;6915;48.296;8.874;2024-03-29T02:49:25;0.40;;;0.30;;
13685;SDS011;6915;48.296;8.874;2024-03-29T02:51:52;0.33;;;0.33;;
13685;SDS011;6915;48.296;8.874;2024-03-29T02:54:19;0.93;;;0.40;;
13685;SDS011;6915;48.296;8.874;2024-03-29T02:56:46;0.40;;;0.37;;
13685;SDS011;6915;48.296;8.874;2024-03-29T02:59:13;0.23;;;0.23;;
13685;SDS011;6915;48.296;8.874;2024-03-29T03:01:40;0.40;;;0.30;;
13685;SDS011;6915;48.296;8.874;2024-03-29T03:04:06;2.10;;;0.40;;
13685;SDS011;6915;48.296;8.874;2024-03-29T03:06:33;0.33;;;0.33;;
13685;SDS011;6915;48.296;8.874;2024-03-29T03:08:59;0.67;;;0.50;;
13685;SDS011;6915;48.296;8.874;2024-03-29T03:11:43;0.40;;;0.30;;
13685;SDS011;6915;48.296;8.874;2024-03-29T03:14:10;0.40;;;0.40;;
13685;SDS011;6915;48.296;8.874;2024-03-29T03:16:39;0.40;;;0.30;;
13685;SDS011;6915;48.296;8.874;2024-03-29T03:19:05;0.40;;;0.30;;
13685;SDS011;6915;48.296;8.874;2024-03-29T03:21:32;0.90;;;0.30;;
13685;SDS011;6915;48.296;8.874;2024-03-29T03:23:58;0.40;;;0.30;;
13685;SDS011;6915;48.296;8.874;2024-03-29T03:26:25;1.07;;;0.30;;
13685;SDS011;6915;48.296;8.874;2024-03-29T03:28:50;2.53;;;0.20;;
13685;SDS011;6915;48.296;8.874;2024-03-29T03:31:18;0.30;;;0.20;;
13685;SDS011;6915;48.296;8.874;2024-03-29T03:33:45;0.20;;;0.20;;
13685;SDS011;6915;48.296;8.874;2024-03-29T03:36:12;0.57;;;0.37;;
13685;SDS011;6915;48.296;8.874;2024-03-29T03:38:38;0.27;;;0.23;;
13685;SDS011;6915;48.296;8.874;2024-03-29T03:41:05;0.30;;;0.27;;
13685;SDS011;6915;48.296;8.874;2024-03-29T03:43:31;2.03;;;0.37;;
13685;SDS011;6915;48.296;8.874;2024-03-29T03:46:00;0.57;;;0.20;;
13685;SDS011;6915;48.296;8.874;2024-03-29T03:48:27;0.30;;;0.30;;
13685;SDS011;6915;48.296;8.874;2024-03-29T03:50:56;0.30;;;0.20;;
13685;SDS011;6915;48.296;8.874;2024-03-29T03:53:22;1.07;;;0.40;;
13685;SDS011;6915;48.296;8.874;2024-03-29T03:55:49;0.50;;;0.40;;
13685;SDS011;6915;48.296;8.874;2024-03-29T03:58:15;0.30;;;0.30;;
13685;SDS011;6915;48.296;8.874;2024-03-29T04:00:42;0.93;;;0.50;;
13685;SDS011;6915;48.296;8.874;2024-03-29T04:03:08;0.70;;;0.50;;
13685;SDS011;6915;48.296;8.874;2024-03-29T04:05:36;1.23;;;0.50;;
13685;SDS011;6915;48.296;8.874;2024-03-29T04:08:04;0.20;;;0.20;;
13685;SDS011;6915;48.296;8.874;2024-03-29T04:10:31;0.67;;;0.40;;
13685;SDS011;6915;48.296;8.874;2024-03-29T04:13:02;1.00;;;0.30;;
13685;SDS011;6915;48.296;8.874;2024-03-29T04:15:29;1.63;;;0.50;;
13685;SDS011;6915;48.296;8.874;2024-03-29T04:17:57;0.87;;;0.43;;
13685;SDS011;6915;48.296;8.874;2024-03-29T04:20:25;1.13;;;0.80;;
13685;SDS011;6915;48.296;8.874;2024-03-29T04:22:51;0.60;;;0.30;;
13685;SDS011;6915;48.296;8.874;2024-03-29T04:25:19;1.37;;;0.90;;
13685;SDS011;6915;48.296;8.874;2024-03-29T04:27:45;1.40;;;1.00;;
13685;SDS011;6915;48.296;8.874;2024-03-29T04:30:12;1.17;;;0.60;;
13685;SDS011;6915;48.296;8.874;2024-03-29T04:32:38;1.17;;;0.60;;
13685;SDS011;6915;48.296;8.874;2024-03-29T04:35:05;0.80;;;0.53;;
13685;SDS011;6915;48.296;8.874;2024-03-29T04:37:32;0.60;;;0.40;;
13685;SDS011;6915;48.296;8.874;2024-03-29T04:39:59;0.93;;;0.50;;
13685;SDS011;6915;48.296;8.874;2024-03-29T04:42:27;0.77;;;0.50;;
13685;SDS011;6915;48.296;8.874;2024-03-29T04:44:54;0.80;;;0.40;;
13685;SDS011;6915;48.296;8.874;2024-03-29T04:47:21;0.40;;;0.40;;
13685;SDS011;6915;48.296;8.874;2024-03-29T04:49:48;0.50;;;0.47;;
13685;SDS011;6915;48.296;8.874;2024-03-29T04:52:15;0.20;;;0.20;;
13685;SDS011;6915;48.296;8.874;2024-03-29T04:54:42;1.40;;;0.23;;
13685;SDS011;6915;48.296;8.874;2024-03-29T04:57:09;0.50;;;0.50;;
13685;SDS011;6915;48.296;8.874;2024-03-29T04:59:39;4.80;;;3.80;;
13685;SDS011;6915;48.296;8.874;2024-03-29T05:02:06;5.20;;;3.80;;
13685;SDS011;6915;48.296;8.874;2024-03-29T05:04:33;3.83;;;3.20;;
13685;SDS011;6915;48.296;8.874;2024-03-29T05:07:00;3.00;;;2.67;;
13685;SDS011;6915;48.296;8.874;2024-03-29T05:09:27;1.00;;;0.90;;
13685;SDS011;6915;48.296;8.874;2024-03-29T05:11:54;0.50;;;0.30;;
13685;SDS011;6915;48.296;8.874;2024-03-29T05:14:21;0.43;;;0.43;;
13685;SDS011;6915;48.296;8.874;2024-03-29T05:16:50;0.47;;;0.47;;
13685;SDS011;6915;48.296;8.874;2024-03-29T05:19:18;0.37;;;0.37;;
13685;SDS011;6915;48.296;8.874;2024-03-29T05:21:45;0.40;;;0.40;;
13685;SDS011;6915;48.296;8.874;2024-03-29T05:24:12;0.87;;;0.40;;
13685;SDS011;6915;48.296;8.874;2024-03-29T05:26:38;0.37;;;0.30;;
13685;SDS011;6915;48.296;8.874;2024-03-29T05:29:06;0.67;;;0.30;;
13685;SDS011;6915;48.296;8.874;2024-03-29T05:31:32;0.43;;;0.30;;
13685;SDS011;6915;48.296;8.874;2024-03-29T05:34:01;0.70;;;0.40;;
13685;SDS011;6915;48.296;8.874;2024-03-29T05:36:28;0.23;;;0.23;;
13685;SDS011;6915;48.296;8.874;2024-03-29T05:38:55;0.87;;;0.57;;
13685;SDS011;6915;48.296;8.874;2024-03-29T05:41:21;0.57;;;0.50;;
13685;SDS011;6915;48.296;8.874;2024-03-29T05:43:49;1.07;;;0.50;;
13685;SDS011;6915;48.296;8.874;2024-03-29T05:46:16;0.50;;;0.40;;
13685;SDS011;6915;48.296;8.874;2024-03-29T05:48:43;0.57;;;0.50;;
13685;SDS011;6915;48.296;8.874;2024-03-29T05:51:12;0.50;;;0.40;;
13685;SDS011;6915;48.296;8.874;2024-03-29T05:53:39;0.30;;;0.30;;
13685;SDS011;6915;48.296;8.874;2024-03-29T05:56:06;0.50;;;0.40;;
13685;SDS011;6915;48.296;8.874;2024-03-29T05:58:34;0.97;;;0.70;;
13685;SDS011;6915;48.296;8.874;2024-03-29T06:01:01;1.20;;;0.70;;
13685;SDS011;6915;48.296;8.874;2024-03-29T06:03:28;0.60;;;0.60;;
13685;SDS011;6915;48.296;8.874;2024-03-29T06:05:55;1.80;;;0.70;;
13685;SDS011;6915;48.296;8.874;2024-03-29T06:08:23;0.73;;;0.53;;
13685;SDS011;6915;48.296;8.874;2024-03-29T06:10:52;0.70;;;0.70;;
13685;SDS011;6915;48.296;8.874;2024-03-29T06:13:19;1.00;;;0.67;;
13685;SDS011;6915;48.296;8.874;2024-03-29T06:16:14;1.00;;;0.73;;
13685;SDS011;6915;48.296;8.874;2024-03-29T06:18:59;0.90;;;0.73;;
13685;SDS011;6915;48.296;8.874;2024-03-29T06:21:26;1.37;;;0.80;;
13685;SDS011;6915;48.296;8.874;2024-03-29T06:23:54;1.87;;;1.03;;
13685;SDS011;6915;48.296;8.874;2024-03-29T06:26:21;0.70;;;0.70;;
13685;SDS011;6915;48.296;8.874;2024-03-29T06:28:48;2.03;;;1.20;;
13685;SDS011;6915;48.296;8.874;2024-03-29T06:31:15;2.10;;;0.90;;
13685;SDS011;6915;48.296;8.874;2024-03-29T06:33:42;1.23;;;0.90;;
13685;SDS011;6915;48.296;8.874;2024-03-29T06:36:09;0.80;;;0.70;;
13685;SDS011;6915;48.296;8.874;2024-03-29T06:38:36;1.27;;;0.73;;
13685;SDS011;6915;48.296;8.874;2024-03-29T06:41:04;1.80;;;1.43;;
13685;SDS011;6915;48.296;8.874;2024-03-29T06:43:31;2.07;;;1.43;;
13685;SDS011;6915;48.296;8.874;2024-03-29T06:46:00;1.67;;;1.43;;
13685;SDS011;6915;48.296;8.874;2024-03-29T06:48:28;3.80;;;2.70;;
13685;SDS011;6915;48.296;8.874;2024-03-29T06:50:56;2.47;;;1.63;;
13685;SDS011;6915;48.296;8.874;2024-03-29T06:53:23;3.87;;;2.47;;
13685;SDS011;6915;48.296;8.874;2024-03-29T06:55:50;3.20;;;2.67;;
13685;SDS011;6915;48.296;8.874;2024-03-29T06:58:20;2.33;;;2.10;;
13685;SDS011;6915;48.296;8.874;2024-03-29T07:00:47;1.80;;;1.70;;
13685;SDS011;6915;48.296;8.874;2024-03-29T07:03:15;4.90;;;3.73;;
13685;SDS011;6915;48.296;8.874;2024-03-29T07:05:43;2.50;;;2.10;;
13685;SDS011;6915;48.296;8.874;2024-03-29T07:08:10;1.73;;;1.07;;
13685;SDS011;6915;48.296;8.874;2024-03-29T07:10:37;0.80;;;0.80;;
13685;SDS011;6915;48.296;8.874;2024-03-29T07:13:05;1.10;;;0.90;;
13685;SDS011;6915;48.296;8.874;2024-03-29T07:15:34;0.90;;;0.37;;
13685;SDS011;6915;48.296;8.874;2024-03-29T07:18:01;0.40;;;0.23;;
13685;SDS011;6915;48.296;8.874;2024-03-29T07:20:28;0.87;;;0.53;;
13685;SDS011;6915;48.296;8.874;2024-03-29T07:22:55;0.43;;;0.43;;
13685;SDS011;6915;48.296;8.874;2024-03-29T07:25:23;0.40;;;0.30;;
13685;SDS011;6915;48.296;8.874;2024-03-29T07:27:51;0.20;;;0.20;;
13685;SDS011;6915;48.296;8.874;2024-03-29T07:30:18;0.20;;;0.20;;
13685;SDS011;6915;48.296;8.874;2024-03-29T07:32:47;1.00;;;0.30;;
13685;SDS011;6915;48.296;8.874;2024-03-29T07:35:14;1.33;;;0.30;;
13685;SDS011;6915;48.296;8.874;2024-03-29T07:37:40;0.30;;;0.30;;
13685;SDS011;6915;48.296;8.874;2024-03-29T07:40:11;0.40;;;0.40;;
13685;SDS011;6915;48.296;8.874;2024-03-29T07:42:38;1.17;;;0.30;;
13685;SDS011;6915;48.296;8.874;2024-03-29T07:45:05;2.20;;;0.30;;
13685;SDS011;6915;48.296;8.874;2024-03-29T07:47:32;0.33;;;0.30;;
13685;SDS011;6915;48.296;8.874;2024-03-29T07:50:02;0.40;;;0.30;;
13685;SDS011;6915;48.296;8.874;2024-03-29T07:52:29;0.20;;;0.20;;
13685;SDS011;6915;48.296;8.874;2024-03-29T07:54:56;0.70;;;0.30;;
13685;SDS011;6915;48.296;8.874;2024-03-29T07:57:24;0.50;;;0.30;;
13685;SDS011;6915;48.296;8.874;2024-03-29T07:59:51;0.47;;;0.40;;
13685;SDS011;6915;48.296;8.874;2024-03-29T08:02:18;0.20;;;0.20;;
13685;SDS011;6915;48.296;8.874;2024-03-29T08:04:45;1.80;;;0.50;;
13685;SDS011;6915;48.296;8.874;2024-03-29T08:07:13;0.93;;;0.50;;
13685;SDS011;6915;48.296;8.874;2024-03-29T08:09:40;4.87;;;2.20;;
13685;SDS011;6915;48.296;8.874;2024-03-29T08:12:07;4.10;;;2.70;;
13685;SDS011;6915;48.296;8.874;2024-03-29T08:14:35;4.57;;;2.10;;
13685;SDS011;6915;48.296;8.874;2024-03-29T08:17:02;3.00;;;1.40;;
13685;SDS011;6915;48.296;8.874;2024-03-29T08:19:32;5.17;;;2.50;;
13685;SDS011;6915;48.296;8.874;2024-03-29T08:21:59;4.03;;;2.43;;
13685;SDS011;6915;48.296;8.874;2024-03-29T08:24:28;3.07;;;2.40;;
13685;SDS011;6915;48.296;8.874;2024-03-29T08:26:55;2.43;;;0.87;;
13685;SDS011;6915;48.296;8.874;2024-03-29T08:29:24;0.70;;;0.70;;
13685;SDS011;6915;48.296;8.874;2024-03-29T08:31:51;1.00;;;0.70;;
13685;SDS011;6915;48.296;8.874;2024-03-29T08:34:18;1.10;;;0.90;;
13685;SDS011;6915;48.296;8.874;2024-03-29T08:36:45;1.43;;;1.20;;
13685;SDS011;6915;48.296;8.874;2024-03-29T08:39:12;1.70;;;1.37;;
13685;SDS011;6915;48.296;8.874;2024-03-29T08:41:41;1.17;;;1.07;;
13685;SDS011;6915;48.296;8.874;2024-03-29T08:44:09;1.30;;;1.20;;
13685;SDS011;6915;48.296;8.874;2024-03-29T08:46:37;1.43;;;1.00;;
13685;SDS011;6915;48.296;8.874;2024-03-29T08:49:04;1.00;;;0.90;;
13685;SDS011;6915;48.296;8.874;2024-03-29T08:51:31;1.30;;;1.20;;
13685;SDS011;6915;48.296;8.874;2024-03-29T08:53:58;1.07;;;0.93;;
13685;SDS011;6915;48.296;8.874;2024-03-29T08:56:29;1.67;;;1.03;;
13685;SDS011;6915;48.296;8.874;2024-03-29T08:58:58;2.57;;;0.90;;
13685;SDS011;6915;48.296;8.874;2024-03-29T09:01:28;1.20;;;1.00;;
13685;SDS011;6915;48.296;8.874;2024-03-29T09:03:55;1.03;;;0.93;;
13685;SDS011;6915;48.296;8.874;2024-03-29T09:06:21;1.00;;;1.00;;
13685;SDS011;6915;48.296;8.874;2024-03-29T09:08:48;1.53;;;1.10;;
13685;SDS011;6915;48.296;8.874;2024-03-29T09:11:15;1.17;;;1.10;;
13685;SDS011;6915;48.296;8.874;2024-03-29T09:13:42;1.57;;;1.47;;
13685;SDS011;6915;48.296;8.874;2024-03-29T09:16:10;2.00;;;1.77;;
13685;SDS011;6915;48.296;8.874;2024-03-29T09:18:37;1.43;;;1.30;;
13685;SDS011;6915;48.296;8.874;2024-03-29T09:21:04;2.60;;;1.00;;
13685;SDS011;6915;48.296;8.874;2024-03-29T09:23:33;1.57;;;1.47;;
13685;SDS011;6915;48.296;8.874;2024-03-29T09:26:00;2.07;;;1.60;;
13685;SDS011;6915;48.296;8.874;2024-03-29T09:28:30;2.07;;;1.60;;
13685;SDS011;6915;48.296;8.874;2024-03-29T09:30:59;2.80;;;1.63;;
13685;SDS011;6915;48.296;8.874;2024-03-29T09:33:28;2.00;;;1.90;;
13685;SDS011;6915;48.296;8.874;2024-03-29T09:35:55;3.40;;;1.50;;
13685;SDS011;6915;48.296;8.874;2024-03-29T09:38:23;2.30;;;2.10;;
13685;SDS011;6915;48.296;8.874;2024-03-29T09:40:52;2.33;;;2.10;;
13685;SDS011;6915;48.296;8.874;2024-03-29T09:43:29;2.33;;;1.40;;
13685;SDS011;6915;48.296;8.874;2024-03-29T09:45:57;1.30;;;1.10;;
13685;SDS011;6915;48.296;8.874;2024-03-29T09:48:24;2.63;;;1.20;;
13685;SDS011;6915;48.296;8.874;2024-03-29T09:50:53;1.60;;;1.20;;
13685;SDS011;6915;48.296;8.874;2024-03-29T09:53:22;1.20;;;0.93;;
13685;SDS011;6915;48.296;8.874;2024-03-29T09:55:50;2.63;;;1.00;;
13685;SDS011;6915;48.296;8.874;2024-03-29T09:58:17;1.30;;;1.20;;
13685;SDS011;6915;48.296;8.874;2024-03-29T10:00:44;1.23;;;1.03;;
13685;SDS011;6915;48.296;8.874;2024-03-29T10:03:11;1.70;;;1.37;;
13685;SDS011;6915;48.296;8.874;2024-03-29T10:05:40;1.70;;;1.50;;
13685;SDS011;6915;48.296;8.874;2024-03-29T10:08:08;2.30;;;1.53;;
13685;SDS011;6915;48.296;8.874;2024-03-29T10:10:35;1.70;;;1.30;;
13685;SDS011;6915;48.296;8.874;2024-03-29T10:13:02;2.43;;;2.20;;
13685;SDS011;6915;48.296;8.874;2024-03-29T10:15:29;2.20;;;1.70;;
13685;SDS011;6915;48.296;8.874;2024-03-29T10:17:58;1.23;;;1.20;;
13685;SDS011;6915;48.296;8.874;2024-03-29T10:20:25;1.90;;;1.40;;
13685;SDS011;6915;48.296;8.874;2024-03-29T10:22:52;1.20;;;1.10;;
13685;SDS011;6915;48.296;8.874;2024-03-29T10:25:22;1.20;;;1.10;;
13685;SDS011;6915;48.296;8.874;2024-03-29T10:27:49;1.93;;;1.47;;
13685;SDS011;6915;48.296;8.874;2024-03-29T10:30:15;1.10;;;0.97;;
13685;SDS011;6915;48.296;8.874;2024-03-29T10:32:46;1.97;;;1.37;;
13685;SDS011;6915;48.296;8.874;2024-03-29T10:35:13;1.87;;;1.67;;
13685;SDS011;6915;48.296;8.874;2024-03-29T10:37:41;1.93;;;1.33;;
13685;SDS011;6915;48.296;8.874;2024-03-29T10:40:09;2.30;;;1.30;;
13685;SDS011;6915;48.296;8.874;2024-03-29T10:42:41;1.47;;;1.33;;
13685;SDS011;6915;48.296;8.874;2024-03-29T10:45:10;2.07;;;1.70;;
13685;SDS011;6915;48.296;8.874;2024-03-29T10:47:37;1.60;;;1.47;;
13685;SDS011;6915;48.296;8.874;2024-03-29T10:50:09;2.07;;;1.70;;
13685;SDS011;6915;48.296;8.874;2024-03-29T10:52:38;1.73;;;1.40;;
13685;SDS011;6915;48.296;8.874;2024-03-29T10:55:07;1.27;;;1.17;;
13685;SDS011;6915;48.296;8.874;2024-03-29T10:57:35;1.90;;;1.60;;
13685;SDS011;6915;48.296;8.874;2024-03-29T11:00:11;1.33;;;1.23;;
13685;SDS011;6915;48.296;8.874;2024-03-29T11:02:42;1.67;;;1.50;;
13685;SDS011;6915;48.296;8.874;2024-03-29T11:05:15;1.60;;;1.50;;
13685;SDS011;6915;48.296;8.874;2024-03-29T11:07:41;1.53;;;1.43;;
13685;SDS011;6915;48.296;8.874;2024-03-29T11:10:11;1.30;;;1.20;;
13685;SDS011;6915;48.296;8.874;2024-03-29T11:12:46;1.40;;;1.30;;
13685;SDS011;6915;48.296;8.874;2024-03-29T11:15:25;1.77;;;1.57;;
13685;SDS011;6915;48.296;8.874;2024-03-29T11:17:55;2.67;;;1.20;;
13685;SDS011;6915;48.296;8.874;2024-03-29T11:20:26;2.03;;;1.40;;
13685;SDS011;6915;48.296;8.874;2024-03-29T11:23:01;2.13;;;1.17;;
13685;SDS011;6915;48.296;8.874;2024-03-29T11:25:40;2.17;;;1.30;;
13685;SDS011;6915;48.296;8.874;2024-03-29T11:28:08;1.60;;;1.50;;
13685;SDS011;6915;48.296;8.874;2024-03-29T11:30:44;2.23;;;1.70;;
13685;SDS011;6915;48.296;8.874;2024-03-29T11:33:28;1.40;;;1.30;;
13685;SDS011;6915;48.296;8.874;2024-03-29T11:35:56;1.57;;;1.37;;
13685;SDS011;6915;48.296;8.874;2024-03-29T11:38:34;2.00;;;1.63;;
13685;SDS011;6915;48.296;8.874;2024-03-29T11:41:05;1.30;;;1.20;;
13685;SDS011;6915;48.296;8.874;2024-03-29T11:43:33;1.20;;;1.10;;
13685;SDS011;6915;48.296;8.874;2024-03-29T11:46:04;1.43;;;1.13;;
13685;SDS011;6915;48.296;8.874;2024-03-29T11:48:32;1.07;;;1.07;;
13685;SDS011;6915;48.296;8.874;2024-03-29T11:51:00;1.30;;;1.13;;
13685;SDS011;6915;48.296;8.874;2024-03-29T11:53:28;1.73;;;1.27;;
13685;SDS011;6915;48.296;8.874;2024-03-29T11:55:56;1.50;;;1.40;;
13685;SDS011;6915;48.296;8.874;2024-03-29T11:58:24;1.60;;;1.40;;
13685;SDS011;6915;48.296;8.874;2024-03-29T12:00:52;2.87;;;1.50;;
13685;SDS011;6915;48.296;8.874;2024-03-29T12:03:21;2.23;;;1.60;;
13685;SDS011;6915;48.296;8.874;2024-03-29T12:05:50;2.00;;;1.20;;
13685;SDS011;6915;48.296;8.874;2024-03-29T12:08:19;1.40;;;1.10;;
13685;SDS011;6915;48.296;8.874;2024-03-29T12:10:46;1.27;;;1.17;;
13685;SDS011;6915;48.296;8.874;2024-03-29T12:13:15;1.20;;;1.10;;
13685;SDS011;6915;48.296;8.874;2024-03-29T12:15:42;1.10;;;1.00;;
13685;SDS011;6915;48.296;8.874;2024-03-29T12:18:10;1.10;;;0.90;;
13685;SDS011;6915;48.296;8.874;2024-03-29T12:20:39;1.40;;;1.00;;
13685;SDS011;6915;48.296;8.874;2024-03-29T12:23:06;1.33;;;0.70;;
13685;SDS011;6915;48.296;8.874;2024-03-29T12:25:34;1.00;;;0.70;;
13685;SDS011;6915;48.296;8.874;2024-03-29T12:28:03;0.90;;;0.80;;
13685;SDS011;6915;48.296;8.874;2024-03-29T12:30:30;0.60;;;0.60;;
13685;SDS011;6915;48.296;8.874;2024-03-29T12:33:01;1.00;;;0.90;;
13685;SDS011;6915;48.296;8.874;2024-03-29T12:35:29;0.77;;;0.77;;
13685;SDS011;6915;48.296;8.874;2024-03-29T12:37:59;0.80;;;0.80;;
13685;SDS011;6915;48.296;8.874;2024-03-29T12:40:28;1.63;;;1.10;;
13685;SDS011;6915;48.296;8.874;2024-03-29T12:43:02;0.80;;;0.80;;
13685;SDS011;6915;48.296;8.874;2024-03-29T12:45:29;0.73;;;0.60;;
13685;SDS011;6915;48.296;8.874;2024-03-29T12:47:57;1.13;;;1.00;;
13685;SDS011;6915;48.296;8.874;2024-03-29T12:50:25;1.10;;;0.93;;
13685;SDS011;6915;48.296;8.874;2024-03-29T12:52:53;1.27;;;0.73;;
13685;SDS011;6915;48.296;8.874;2024-03-29T12:55:22;1.03;;;0.70;;
13685;SDS011;6915;48.296;8.874;2024-03-29T12:57:50;1.00;;;0.80;;
13685;SDS011;6915;48.296;8.874;2024-03-29T13:00:18;2.07;;;0.90;;
13685;SDS011;6915;48.296;8.874;2024-03-29T13:02:45;2.03;;;0.80;;
13685;SDS011;6915;48.296;8.874;2024-03-29T13:05:12;1.10;;;0.70;;
13685;SDS011;6915;48.296;8.874;2024-03-29T13:07:39;0.70;;;0.70;;
13685;SDS011;6915;48.296;8.874;2024-03-29T13:10:07;0.90;;;0.70;;
13685;SDS011;6915;48.296;8.874;2024-03-29T13:12:40;2.23;;;0.60;;
13685;SDS011;6915;48.296;8.874;2024-03-29T13:15:15;0.60;;;0.60;;
13685;SDS011;6915;48.296;8.874;2024-03-29T13:17:44;0.93;;;0.80;;
13685;SDS011;6915;48.296;8.874;2024-03-29T13:20:12;1.53;;;0.90;;
13685;SDS011;6915;48.296;8.874;2024-03-29T13:22:40;1.43;;;0.80;;
13685;SDS011;6915;48.296;8.874;2024-03-29T13:25:10;1.10;;;0.77;;
13685;SDS011;6915;48.296;8.874;2024-03-29T13:27:37;0.80;;;0.70;;
13685;SDS011;6915;48.296;8.874;2024-03-29T13:30:06;1.00;;;0.90;;
13685;SDS011;6915;48.296;8.874;2024-03-29T13:32:34;2.13;;;0.80;;
13685;SDS011;6915;48.296;8.874;2024-03-29T13:35:02;0.97;;;0.80;;
13685;SDS011;6915;48.296;8.874;2024-03-29T13:37:30;0.60;;;0.60;;
13685;SDS011;6915;48.296;8.874;2024-03-29T13:39:57;0.83;;;0.70;;
13685;SDS011;6915;48.296;8.874;2024-03-29T13:42:24;1.03;;;0.87;;
13685;SDS011;6915;48.296;8.874;2024-03-29T13:44:51;1.07;;;0.80;;
13685;SDS011;6915;48.296;8.874;2024-03-29T13:47:20;1.63;;;0.80;;
13685;SDS011;6915;48.296;8.874;2024-03-29T13:49:47;0.80;;;0.80;;
13685;SDS011;6915;48.296;8.874;2024-03-29T13:52:17;1.07;;;0.90;;
13685;SDS011;6915;48.296;8.874;2024-03-29T13:54:45;1.80;;;0.90;;
13685;SDS011;6915;48.296;8.874;2024-03-29T13:57:12;2.60;;;0.80;;
13685;SDS011;6915;48.296;8.874;2024-03-29T13:59:39;0.63;;;0.63;;
13685;SDS011;6915;48.296;8.874;2024-03-29T14:02:08;1.07;;;0.90;;
13685;SDS011;6915;48.296;8.874;2024-03-29T14:04:36;1.40;;;0.90;;
13685;SDS011;6915;48.296;8.874;2024-03-29T14:07:04;1.10;;;0.90;;
13685;SDS011;6915;48.296;8.874;2024-03-29T14:09:33;0.73;;;0.73;;
13685;SDS011;6915;48.296;8.874;2024-03-29T14:12:00;1.50;;;0.80;;
13685;SDS011;6915;48.296;8.874;2024-03-29T14:14:28;0.70;;;0.63;;
13685;SDS011;6915;48.296;8.874;2024-03-29T14:16:59;0.70;;;0.70;;
13685;SDS011;6915;48.296;8.874;2024-03-29T14:19:32;1.50;;;0.90;;
13685;SDS011;6915;48.296;8.874;2024-03-29T14:22:04;1.50;;;0.67;;
13685;SDS011;6915;48.296;8.874;2024-03-29T14:24:32;0.80;;;0.80;;
13685;SDS011;6915;48.296;8.874;2024-03-29T14:27:01;1.43;;;1.03;;
13685;SDS011;6915;48.296;8.874;2024-03-29T14:29:28;2.03;;;1.07;;
13685;SDS011;6915;48.296;8.874;2024-03-29T14:32:01;1.17;;;0.80;;
13685;SDS011;6915;48.296;8.874;2024-03-29T14:37:14;1.77;;;1.43;;
13685;SDS011;6915;48.296;8.874;2024-03-29T14:39:41;1.20;;;0.97;;
13685;SDS011;6915;48.296;8.874;2024-03-29T14:42:09;1.30;;;1.20;;
13685;SDS011;6915;48.296;8.874;2024-03-29T14:44:38;1.20;;;1.00;;
13685;SDS011;6915;48.296;8.874;2024-03-29T14:47:06;1.27;;;1.07;;
13685;SDS011;6915;48.296;8.874;2024-03-29T14:49:33;1.23;;;1.10;;
13685;SDS011;6915;48.296;8.874;2024-03-29T14:51:59;1.37;;;1.10;;
13685;SDS011;6915;48.296;8.874;2024-03-29T14:54:28;2.03;;;1.13;;
13685;SDS011;6915;48.296;8.874;2024-03-29T14:56:55;1.03;;;1.00;;
13685;SDS011;6915;48.296;8.874;2024-03-29T14:59:21;0.80;;;0.80;;
13685;SDS011;6915;48.296;8.874;2024-03-29T15:01:48;1.87;;;1.00;;
13685;SDS011;6915;48.296;8.874;2024-03-29T15:04:15;0.90;;;0.77;;
13685;SDS011;6915;48.296;8.874;2024-03-29T15:09:25;1.07;;;0.90;;